createdAt,value
2019-02-07T00:00:02.937Z,2.47
2019-02-07T00:03:06.975Z,2.35
2019-02-07T00:06:11.038Z,2.25
2019-02-07T00:09:15.102Z,2.20
2019-02-07T00:12:19.137Z,2.25
2019-02-07T00:15:23.195Z,2.10
2019-02-07T00:18:27.253Z,2.52
2019-02-07T00:21:31.670Z,2.40
2019-02-07T00:24:42.509Z,2.12
2019-02-07T00:27:41.469Z,2.30
2019-02-07T00:30:45.920Z,2.00
2019-02-07T00:33:49.974Z,2.17
2019-02-07T00:36:54.017Z,2.40
2019-02-07T00:39:58.246Z,1.90
2019-02-07T00:43:02.286Z,2.30
2019-02-07T00:46:06.348Z,2.40
2019-02-07T00:49:10.413Z,2.20
2019-02-07T00:52:14.449Z,2.30
2019-02-07T00:55:19.846Z,2.00
2019-02-07T00:58:23.884Z,2.20
2019-02-07T01:01:27.941Z,2.10
2019-02-07T01:04:32.000Z,2.12
2019-02-07T01:07:35.133Z,1.98
2019-02-07T01:10:38.088Z,2.20
2019-02-07T01:13:41.916Z,1.90
2019-02-07T01:16:45.973Z,2.20
2019-02-07T01:19:50.034Z,2.10
2019-02-07T01:22:54.068Z,1.92
2019-02-07T01:25:58.205Z,1.82
2019-02-07T01:29:02.272Z,2.00
2019-02-07T01:32:06.309Z,2.22
2019-02-07T01:35:10.369Z,1.92
2019-02-07T01:38:14.405Z,2.02
2019-02-07T01:41:18.465Z,2.00
2019-02-07T01:44:22.522Z,2.00
2019-02-07T01:47:26.559Z,2.00
2019-02-07T01:50:30.617Z,1.90
2019-02-07T01:53:34.657Z,2.20
2019-02-07T01:56:38.714Z,2.12
2019-02-07T01:59:42.770Z,1.90
2019-02-07T02:02:46.810Z,1.90
2019-02-07T02:05:50.869Z,1.87
2019-02-07T02:08:54.905Z,1.90
2019-02-07T02:11:58.966Z,2.25
2019-02-07T02:15:03.030Z,2.22
2019-02-07T02:18:07.056Z,1.80
2019-02-07T02:21:11.121Z,1.95
2019-02-07T02:24:15.176Z,2.02
2019-02-07T02:27:19.213Z,1.75
2019-02-07T02:30:25.423Z,1.70
2019-02-07T02:33:29.458Z,1.90
2019-02-07T02:36:33.517Z,1.77
2019-02-07T02:39:37.578Z,2.10
2019-02-07T02:42:41.789Z,1.72
2019-02-07T02:45:45.860Z,2.00
2019-02-07T02:48:49.889Z,1.70
2019-02-07T02:51:53.949Z,2.10
2019-02-07T02:54:58.183Z,1.65
2019-02-07T02:58:02.240Z,2.20
2019-02-07T03:01:22.973Z,1.82
2019-02-07T03:04:43.791Z,1.90
2019-02-07T03:07:58.128Z,1.80
2019-02-07T03:11:04.159Z,1.82
2019-02-07T03:14:21.810Z,1.67
2019-02-07T03:17:29.921Z,1.95
2019-02-07T03:20:41.361Z,1.90
2019-02-07T03:23:47.052Z,2.08
2019-02-07T03:26:55.392Z,1.92
2019-02-07T03:30:17.363Z,2.00
2019-02-07T03:33:38.952Z,2.00
2019-02-07T03:36:56.358Z,1.70
2019-02-07T03:40:08.241Z,1.70
2019-02-07T03:43:22.741Z,1.82
2019-02-07T03:46:46.222Z,1.65
2019-02-07T03:50:03.802Z,1.70
2019-02-07T03:53:18.057Z,1.80
2019-02-07T03:56:39.261Z,1.77
2019-02-07T03:59:45.316Z,1.80
2019-02-07T04:02:53.965Z,2.22
2019-02-07T04:05:59.669Z,1.98
2019-02-07T04:09:25.299Z,1.70
2019-02-07T04:12:40.239Z,2.00
2019-02-07T04:15:55.001Z,1.47
2019-02-07T04:19:00.677Z,1.80
2019-02-07T04:22:18.432Z,1.75
2019-02-07T04:25:39.446Z,1.60
2019-02-07T04:28:54.050Z,1.80
2019-02-07T04:32:02.447Z,1.62
2019-02-07T04:35:11.047Z,1.62
2019-02-07T04:38:22.475Z,1.70
2019-02-07T04:41:30.813Z,1.70
2019-02-07T04:44:39.553Z,1.40
2019-02-07T04:47:54.260Z,1.77
2019-02-07T04:51:08.649Z,1.70
2019-02-07T04:54:29.125Z,1.50
2019-02-07T04:57:51.169Z,1.60
2019-02-07T05:00:56.861Z,1.85
2019-02-07T05:04:08.415Z,1.90
2019-02-07T05:07:14.115Z,1.42
2019-02-07T05:10:35.973Z,1.60
2019-02-07T05:13:56.328Z,1.72
2019-02-07T05:17:08.037Z,2.10
2019-02-07T05:20:16.388Z,2.52
2019-02-07T05:23:28.071Z,3.10
2019-02-07T05:26:33.745Z,3.02
2019-02-07T05:29:51.323Z,3.40
2019-02-07T05:32:57.007Z,4.03
2019-02-07T05:36:19.139Z,4.67
2019-02-07T05:39:30.595Z,4.00
2019-02-07T05:42:36.303Z,4.50
2019-02-07T05:45:44.647Z,4.25
2019-02-07T05:48:50.725Z,4.62
2019-02-07T05:51:56.423Z,4.75
2019-02-07T05:55:17.069Z,4.67
2019-02-07T05:58:28.306Z,4.87
2019-02-07T06:01:39.723Z,4.62
2019-02-07T06:04:45.427Z,4.60
2019-02-07T06:07:59.786Z,4.80
2019-02-07T06:11:05.488Z,4.45
2019-02-07T06:14:11.458Z,5.15
2019-02-07T06:17:19.594Z,4.47
2019-02-07T06:20:25.299Z,5.17
2019-02-07T06:23:37.086Z,4.67
2019-02-07T06:26:59.539Z,4.65
2019-02-07T06:30:09.248Z,4.87
2019-02-07T06:33:20.826Z,4.70
2019-02-07T06:36:32.205Z,5.08
2019-02-07T06:39:37.902Z,5.20
2019-02-07T06:42:43.584Z,4.85
2019-02-07T06:45:51.972Z,4.87
2019-02-07T06:49:00.372Z,4.97
2019-02-07T06:52:06.065Z,4.80
2019-02-07T06:55:14.665Z,4.85
2019-02-07T06:58:20.342Z,4.72
2019-02-07T07:01:31.791Z,4.58
2019-02-07T07:04:54.040Z,4.60
2019-02-07T07:08:05.446Z,4.67
2019-02-07T07:11:20.133Z,4.83
2019-02-07T07:14:25.815Z,4.85
2019-02-07T07:17:43.395Z,4.75
2019-02-07T07:21:05.231Z,4.03
2019-02-07T07:24:27.112Z,4.25
2019-02-07T07:27:38.854Z,4.55
2019-02-07T07:31:00.831Z,4.62
2019-02-07T07:34:22.665Z,4.08
2019-02-07T07:37:46.370Z,4.37
2019-02-07T07:41:04.063Z,4.60
2019-02-07T07:44:18.277Z,4.20
2019-02-07T07:47:35.649Z,4.33
2019-02-07T07:50:40.230Z,4.28
2019-02-07T07:53:54.995Z,3.87
2019-02-07T07:57:06.589Z,4.10
2019-02-07T08:00:31.058Z,4.10
2019-02-07T08:03:53.010Z,3.98
2019-02-07T08:07:13.449Z,4.33
2019-02-07T08:10:19.151Z,3.92
2019-02-07T08:13:27.975Z,3.98
2019-02-07T08:16:39.613Z,4.05
2019-02-07T08:19:45.317Z,4.15
2019-02-07T08:22:53.945Z,3.67
2019-02-07T08:26:16.415Z,3.95
2019-02-07T08:29:22.113Z,3.60
2019-02-07T08:32:36.786Z,3.65
2019-02-07T08:35:42.491Z,3.77
2019-02-07T08:38:59.913Z,3.95
2019-02-07T08:42:12.099Z,3.80
2019-02-07T08:45:34.303Z,3.67
2019-02-07T08:48:42.757Z,3.50
2019-02-07T08:51:54.257Z,3.40
2019-02-07T08:55:08.681Z,4.70
2019-02-07T08:58:32.773Z,3.83
2019-02-07T09:01:38.547Z,3.87
2019-02-07T09:04:56.302Z,3.37
2019-02-07T09:08:07.437Z,3.52
2019-02-07T09:11:28.202Z,3.47
2019-02-07T09:14:36.571Z,3.30
2019-02-07T09:17:51.177Z,3.92
2019-02-07T09:21:12.216Z,3.00
2019-02-07T09:24:34.446Z,3.65
2019-02-07T09:27:40.145Z,3.55
2019-02-07T09:31:02.294Z,3.60
2019-02-07T09:34:17.125Z,3.20
2019-02-07T09:37:31.610Z,3.20
2019-02-07T09:40:46.019Z,3.62
2019-02-07T09:43:57.745Z,3.17
2019-02-07T09:47:09.206Z,3.65
2019-02-07T09:50:30.221Z,3.22
2019-02-07T09:53:38.334Z,3.60
2019-02-07T09:56:44.035Z,3.20
2019-02-07T10:00:06.121Z,3.50
2019-02-07T10:03:14.554Z,2.90
2019-02-07T10:06:29.097Z,2.75
2019-02-07T10:09:43.756Z,3.55
2019-02-07T10:13:05.973Z,3.50
2019-02-07T10:16:11.733Z,3.75
2019-02-07T10:19:17.431Z,3.22
2019-02-07T10:22:35.113Z,2.87
2019-02-07T10:25:51.349Z,3.20
2019-02-07T10:29:13.221Z,3.10
2019-02-07T10:32:24.754Z,3.02
2019-02-07T10:35:36.442Z,2.90
2019-02-07T10:38:44.810Z,2.90
2019-02-07T10:42:07.027Z,3.22
2019-02-07T10:45:31.645Z,3.05
2019-02-07T10:48:44.282Z,3.00
2019-02-07T10:51:53.637Z,2.90
2019-02-07T10:55:02.253Z,2.55
2019-02-07T10:58:25.523Z,3.17
2019-02-07T11:01:38.361Z,2.60
2019-02-07T11:04:52.745Z,2.67
2019-02-07T11:08:14.715Z,3.12
2019-02-07T11:11:20.389Z,2.90
2019-02-07T11:14:40.997Z,2.90
2019-02-07T11:18:03.094Z,2.70
2019-02-07T11:21:17.494Z,2.52
2019-02-07T11:24:26.174Z,2.60
2019-02-07T11:27:43.673Z,2.80
2019-02-07T11:31:05.537Z,2.45
2019-02-07T11:34:11.517Z,2.80
2019-02-07T11:37:33.654Z,2.55
2019-02-07T11:40:42.079Z,2.60
2019-02-07T11:43:50.713Z,2.85
2019-02-07T11:47:11.707Z,2.67
2019-02-07T11:50:17.404Z,2.95
2019-02-07T11:53:23.089Z,2.85
2019-02-07T11:56:31.469Z,2.62
2019-02-07T11:59:37.146Z,3.08
2019-02-07T12:03:00.698Z,2.65
2019-02-07T12:06:08.647Z,2.50
2019-02-07T12:09:30.181Z,2.58
2019-02-07T12:12:50.918Z,2.58
2019-02-07T12:15:59.231Z,2.95
2019-02-07T12:19:04.911Z,2.45
2019-02-07T12:22:10.613Z,2.60
2019-02-07T12:25:16.290Z,2.80
2019-02-07T12:28:38.465Z,2.92
2019-02-07T12:31:47.199Z,2.90
2019-02-07T12:35:09.417Z,3.00
2019-02-07T12:38:21.301Z,2.50
2019-02-07T12:41:27.002Z,2.60
2019-02-07T12:44:48.896Z,2.37
2019-02-07T12:47:57.321Z,2.40
2019-02-07T12:51:06.162Z,2.70
2019-02-07T12:54:15.074Z,2.40
2019-02-07T12:57:29.665Z,2.55
2019-02-07T13:00:53.285Z,2.27
2019-02-07T13:04:04.450Z,2.62
2019-02-07T13:07:16.056Z,2.30
2019-02-07T13:10:24.498Z,2.52
2019-02-07T13:13:30.240Z,2.47
2019-02-07T13:16:52.434Z,2.52
2019-02-07T13:19:58.127Z,2.55
2019-02-07T13:23:16.516Z,2.20
2019-02-07T13:26:22.176Z,2.25
2019-02-07T13:29:27.923Z,2.00
2019-02-07T13:32:45.509Z,2.20
2019-02-07T13:35:54.036Z,2.30
2019-02-07T13:39:14.698Z,2.22
2019-02-07T13:42:38.590Z,2.02
2019-02-07T13:45:44.289Z,2.40
2019-02-07T13:48:52.842Z,2.20
2019-02-07T13:52:10.588Z,2.15
2019-02-07T13:55:16.297Z,16.15
2019-02-07T13:58:21.978Z,2.12
2019-02-07T14:01:30.647Z,2.40
2019-02-07T14:04:52.775Z,2.30
2019-02-07T14:08:04.150Z,1.95
2019-02-07T14:11:09.848Z,2.10
2019-02-07T14:14:15.526Z,2.08
2019-02-07T14:17:26.970Z,2.62
2019-02-07T14:20:48.818Z,2.60
2019-02-07T14:24:10.906Z,2.27
2019-02-07T14:27:22.789Z,2.60
2019-02-07T14:30:46.674Z,2.02
2019-02-07T14:33:52.348Z,2.30
2019-02-07T14:37:07.049Z,2.00
2019-02-07T14:40:19.076Z,2.10
2019-02-07T14:43:27.453Z,2.45
2019-02-07T14:46:35.818Z,2.30
2019-02-07T14:49:39.861Z,2.02
2019-02-07T14:52:43.917Z,2.00
2019-02-07T14:55:47.960Z,1.90
2019-02-07T14:58:52.021Z,2.25
2019-02-07T15:01:56.081Z,2.05
2019-02-07T15:05:00.126Z,1.90
2019-02-07T15:08:04.252Z,2.02
2019-02-07T15:11:08.286Z,1.80
2019-02-07T15:14:12.349Z,1.92
2019-02-07T15:17:16.408Z,1.90
2019-02-07T15:20:26.306Z,1.65
2019-02-07T15:23:26.209Z,2.08
2019-02-07T15:26:30.286Z,1.90
2019-02-07T15:29:34.326Z,1.90
2019-02-07T15:32:38.390Z,1.65
2019-02-07T15:35:45.420Z,1.90
2019-02-07T15:38:49.483Z,2.12
2019-02-07T15:41:53.540Z,2.02
2019-02-07T15:44:57.575Z,1.77
2019-02-07T15:48:01.633Z,2.00
2019-02-07T15:51:05.836Z,1.90
2019-02-07T15:54:09.903Z,1.90
2019-02-07T15:57:13.962Z,1.98
2019-02-07T16:00:37.326Z,1.90
2019-02-07T16:03:43.025Z,1.85
2019-02-07T16:06:47.100Z,1.90
2019-02-07T16:09:51.138Z,1.90
2019-02-07T16:12:55.197Z,1.92
2019-02-07T16:15:59.238Z,2.10
2019-02-07T16:19:03.370Z,1.90
2019-02-07T16:22:07.434Z,1.72
2019-02-07T16:25:13.513Z,1.80
2019-02-07T16:28:20.213Z,1.98
2019-02-07T16:31:23.417Z,1.80
2019-02-07T16:34:27.477Z,2.10
2019-02-07T16:37:31.537Z,2.08
2019-02-07T16:40:35.754Z,1.90
2019-02-07T16:43:39.818Z,2.30
2019-02-07T16:46:43.869Z,2.15
2019-02-07T16:49:48.215Z,1.77
2019-02-07T16:52:52.363Z,1.85
2019-02-07T16:55:56.385Z,1.80
2019-02-07T16:59:00.447Z,2.20
2019-02-07T17:02:04.486Z,1.72
2019-02-07T17:05:09.206Z,1.57
2019-02-07T17:08:13.249Z,1.77
2019-02-07T17:11:17.289Z,1.72
2019-02-07T17:14:22.326Z,1.87
2019-02-07T17:17:26.385Z,1.80
2019-02-07T17:20:31.460Z,1.57
2019-02-07T17:23:35.520Z,1.50
2019-02-07T17:26:39.553Z,1.80
2019-02-07T17:29:43.610Z,1.30
2019-02-07T17:32:47.681Z,1.50
2019-02-07T17:35:51.717Z,1.45
2019-02-07T17:38:55.782Z,1.55
2019-02-07T17:41:59.824Z,1.52
2019-02-07T17:45:05.221Z,1.67
2019-02-07T17:48:09.281Z,1.72
2019-02-07T17:51:23.006Z,1.42
2019-02-07T17:54:19.289Z,1.65
2019-02-07T17:57:23.453Z,1.47
2019-02-07T18:00:55.919Z,1.75
2019-02-07T18:03:59.983Z,1.50
2019-02-07T18:07:04.292Z,1.27
2019-02-07T18:10:11.094Z,1.52
2019-02-07T18:13:15.156Z,1.52
2019-02-07T18:16:19.196Z,1.62
2019-02-07T18:19:23.261Z,1.22
2019-02-07T18:22:27.301Z,1.50
2019-02-07T18:25:31.368Z,1.30
2019-02-07T18:28:35.436Z,1.75
2019-02-07T18:31:41.183Z,1.25
2019-02-07T18:34:45.249Z,1.30
2019-02-07T18:37:50.983Z,1.75
2019-02-07T18:40:55.043Z,1.62
2019-02-07T18:43:59.105Z,1.95
2019-02-07T18:47:03.424Z,1.67
2019-02-07T18:50:10.744Z,1.75
2019-02-07T18:53:14.888Z,1.57
2019-02-07T18:56:19.334Z,1.72
2019-02-07T18:59:23.400Z,1.72
2019-02-07T19:02:27.440Z,1.45
2019-02-07T19:05:31.910Z,1.35
2019-02-07T19:08:35.941Z,1.50
2019-02-07T19:11:39.980Z,1.42
2019-02-07T19:14:44.320Z,1.62
2019-02-07T19:17:48.360Z,1.60
2019-02-07T19:20:52.425Z,1.30
2019-02-07T19:23:56.860Z,1.75
2019-02-07T19:27:00.909Z,1.15
2019-02-07T19:30:26.393Z,1.87
2019-02-07T19:33:30.455Z,1.30
2019-02-07T19:36:34.777Z,1.37
2019-02-07T19:39:38.844Z,1.40
2019-02-07T19:42:42.878Z,1.30
2019-02-07T19:45:47.420Z,1.40
2019-02-07T19:48:51.485Z,1.52
2019-02-07T19:51:55.524Z,1.50
2019-02-07T19:54:59.764Z,1.40
2019-02-07T19:58:03.821Z,1.50
2019-02-07T20:01:07.875Z,1.60
2019-02-07T20:04:11.934Z,1.52
2019-02-07T20:07:15.976Z,1.40
2019-02-07T20:10:22.805Z,1.40
2019-02-07T20:13:27.220Z,1.22
2019-02-07T20:16:31.284Z,1.55
2019-02-07T20:19:35.347Z,1.25
2019-02-07T20:22:39.383Z,1.30
2019-02-07T20:25:43.491Z,1.30
2019-02-07T20:28:47.533Z,1.57
2019-02-07T20:31:51.600Z,1.45
2019-02-07T20:34:55.664Z,1.70
2019-02-07T20:37:59.704Z,1.40
2019-02-07T20:41:03.777Z,1.32
2019-02-07T20:44:07.834Z,1.17
2019-02-07T20:47:11.871Z,1.67
2019-02-07T20:50:21.072Z,1.50
2019-02-07T20:53:25.111Z,1.57
2019-02-07T20:56:29.179Z,1.37
2019-02-07T20:59:33.254Z,1.22
2019-02-07T21:02:37.277Z,1.47
2019-02-07T21:05:41.515Z,1.20
2019-02-07T21:08:45.571Z,1.40
2019-02-07T21:11:49.620Z,1.10
2019-02-07T21:14:54.066Z,1.17
2019-02-07T21:17:58.104Z,1.27
2019-02-07T21:21:02.163Z,1.10
2019-02-07T21:24:06.598Z,1.57
2019-02-07T21:27:11.052Z,1.45
2019-02-07T21:30:17.861Z,1.17
2019-02-07T21:33:22.180Z,1.20
2019-02-07T21:36:26.246Z,1.30
2019-02-07T21:39:30.313Z,1.15
2019-02-07T21:42:34.362Z,1.05
2019-02-07T21:45:38.419Z,1.00
2019-02-07T21:48:42.459Z,1.30
2019-02-07T21:51:46.527Z,1.12
2019-02-07T21:54:50.603Z,1.12
2019-02-07T21:57:54.632Z,1.10
2019-02-07T22:00:58.696Z,1.20
2019-02-07T22:04:02.737Z,1.10
2019-02-07T22:07:06.795Z,1.00
2019-02-07T22:10:13.600Z,1.15
2019-02-07T22:13:17.636Z,1.10
2019-02-07T22:16:21.697Z,1.20
2019-02-07T22:19:25.750Z,1.02
2019-02-07T22:22:29.823Z,1.37
2019-02-07T22:25:33.883Z,1.17
2019-02-07T22:28:37.931Z,1.10
2019-02-07T22:31:41.995Z,1.20
2019-02-07T22:34:46.030Z,1.27
2019-02-07T22:37:50.096Z,1.25
2019-02-07T22:40:54.155Z,0.95
2019-02-07T22:43:58.200Z,1.20
2019-02-07T22:47:02.260Z,1.30
2019-02-07T22:50:12.479Z,1.10
2019-02-07T22:53:16.520Z,0.88
2019-02-07T22:56:20.864Z,1.15
2019-02-07T22:59:24.908Z,1.02
2019-02-07T23:02:28.959Z,1.10
2019-02-07T23:05:33.403Z,0.93
2019-02-07T23:08:37.442Z,1.07
2019-02-07T23:11:41.506Z,1.20
2019-02-07T23:14:45.928Z,1.00
2019-02-07T23:17:49.986Z,1.17
2019-02-07T23:20:54.045Z,0.80
2019-02-07T23:23:58.460Z,0.95
2019-02-07T23:27:02.560Z,1.05
2019-02-07T23:30:17.482Z,0.80
2019-02-07T23:33:21.533Z,0.93
2019-02-07T23:36:25.582Z,0.80
2019-02-07T23:39:29.620Z,1.10
2019-02-07T23:42:33.683Z,1.05
2019-02-07T23:45:37.743Z,0.98
2019-02-07T23:48:41.783Z,0.90
2019-02-07T23:51:45.868Z,0.72
2019-02-07T23:54:49.912Z,1.05
2019-02-07T23:57:53.968Z,1.05
